Time;durP1;ratioP1;P1;durP2;ratioP2;P2;SDS_P1;SDS_P2;PMS_P1;PMS_P2;Temp;Humidity;BMP_temperature;BMP_pressure;BME280_temperature;BME280_humidity;BME280_pressure;Samples;Min_cycle;Max_cycle;Signal;HPM_P1;HPM_P2
2024/01/24 00:01:15;;;;;;;;;;;11.90;99.90;;;;;;5070541;28;19913;-74
2024/01/24 00:03:42;;;;;;;;;;;11.90;99.90;;;;;;5070824;28;19913;-75
2024/01/24 00:06:08;;;;;;;;;;;11.90;99.90;;;;;;5070697;28;19913;-74
2024/01/24 00:08:34;;;;;;;;;;;11.80;99.90;;;;;;5069063;28;19940;-75
2024/01/24 00:11:01;;;;;;;;;;;11.80;99.90;;;;;;5070475;28;19912;-71
2024/01/24 00:13:27;;;;;;;;;;;11.80;99.90;;;;;;5070810;28;20272;-75
2024/01/24 00:15:53;;;;;;;;;;;11.90;99.90;;;;;;5070643;28;20418;-74
2024/01/24 00:18:19;;;;;;;;;;;11.90;99.90;;;;;;5073977;28;19909;-75
2024/01/24 00:20:46;;;;;;;;;;;11.90;99.90;;;;;;5074023;28;19908;-76
2024/01/24 00:23:12;;;;;;;;;;;12.00;99.90;;;;;;5074304;28;20277;-75
2024/01/24 00:25:38;;;;;;;;;;;12.00;99.90;;;;;;5074239;28;19915;-76
2024/01/24 00:28:05;;;;;;;;;;;12.00;99.90;;;;;;5074277;28;19908;-76
2024/01/24 00:30:30;;;;;;;;;;;12.00;99.90;;;;;;5072521;28;20026;-76
2024/01/24 00:32:56;;;;;;;;;;;12.10;99.90;;;;;;5072515;28;20058;-75
2024/01/24 00:35:22;;;;;;;;;;;12.10;99.90;;;;;;5074016;28;19923;-75
2024/01/24 00:37:48;;;;;;;;;;;12.10;99.90;;;;;;5070288;28;19913;-75
2024/01/24 00:40:14;;;;;;;;;;;12.10;99.90;;;;;;5056400;28;19999;-76
2024/01/24 00:42:42;;;;;;;;;;;12.10;99.90;;;;;;5073991;28;19915;-75
2024/01/24 00:45:10;;;;;;;;;;;12.10;99.90;;;;;;5073905;28;20003;-76
2024/01/24 00:47:36;;;;;;;;;;;12.10;99.90;;;;;;5056645;28;20226;-74
2024/01/24 00:50:04;;;;;;;;;;;12.10;99.90;;;;;;5053670;28;20008;-75
2024/01/24 00:52:31;;;;;;;;;;;12.10;99.90;;;;;;5053696;28;20310;-75
2024/01/24 00:54:56;;;;;;;;;;;12.00;99.90;;;;;;5053798;28;19995;-75
2024/01/24 00:57:23;;;;;;;;;;;12.10;99.90;;;;;;5053548;28;19935;-75
2024/01/24 00:59:49;;;;;;;;;;;12.10;99.90;;;;;;5077974;28;19909;-75
2024/01/24 01:02:16;;;;;;;;;;;12.10;99.90;;;;;;5074514;28;20017;-74
2024/01/24 01:04:43;;;;;;;;;;;12.00;99.90;;;;;;5072887;28;20029;-75
2024/01/24 01:07:09;;;;;;;;;;;11.80;99.90;;;;;;5072908;28;20039;-75
2024/01/24 01:09:36;;;;;;;;;;;11.80;99.90;;;;;;5072521;28;19965;-74
2024/01/24 01:12:02;;;;;;;;;;;11.80;99.90;;;;;;5072822;28;19923;-75
2024/01/24 01:14:28;;;;;;;;;;;11.80;99.90;;;;;;5072767;28;20008;-75
2024/01/24 01:16:54;;;;;;;;;;;11.80;99.90;;;;;;5072497;28;20102;-76
2024/01/24 01:19:20;;;;;;;;;;;11.80;99.90;;;;;;5059839;28;19909;-76
2024/01/24 01:21:46;;;;;;;;;;;11.80;99.90;;;;;;5052649;28;20358;-76
2024/01/24 01:24:12;;;;;;;;;;;11.80;99.90;;;;;;5084818;28;20277;-75
2024/01/24 01:26:39;;;;;;;;;;;11.70;99.90;;;;;;5104352;28;20382;-75
2024/01/24 01:29:05;;;;;;;;;;;11.70;99.90;;;;;;5072447;28;19917;-75
2024/01/24 01:31:31;;;;;;;;;;;11.60;99.90;;;;;;5070795;28;20363;-75
2024/01/24 01:34:00;;;;;;;;;;;11.70;99.90;;;;;;5072235;28;20079;-75
2024/01/24 01:36:26;;;;;;;;;;;11.70;99.90;;;;;;5072369;28;19973;-75
2024/01/24 01:38:52;;;;;;;;;;;11.70;99.90;;;;;;5072217;28;19908;-75
2024/01/24 01:41:18;;;;;;;;;;;11.70;99.90;;;;;;5072262;28;20326;-76
2024/01/24 01:43:45;;;;;;;;;;;11.80;99.90;;;;;;5072248;28;19908;-76
2024/01/24 01:46:14;;;;;;;;;;;11.80;99.90;;;;;;5072027;28;19908;-77
2024/01/24 01:48:40;;;;;;;;;;;11.80;99.90;;;;;;5072000;28;19916;-76
2024/01/24 01:51:06;;;;;;;;;;;11.70;99.90;;;;;;5072150;28;19908;-76
2024/01/24 01:53:38;;;;;;;;;;;11.70;99.90;;;;;;5072191;28;19935;-75
2024/01/24 01:56:08;;;;;;;;;;;11.60;99.90;;;;;;5072078;28;19924;-75
2024/01/24 01:58:34;;;;;;;;;;;11.60;99.90;;;;;;5071766;28;19913;-75
2024/01/24 02:01:00;;;;;;;;;;;11.60;99.90;;;;;;5071902;28;19953;-75
2024/01/24 02:03:26;;;;;;;;;;;11.60;99.90;;;;;;5070143;28;19924;-75
2024/01/24 02:05:52;;;;;;;;;;;11.60;99.90;;;;;;5070241;28;19939;-75
2024/01/24 02:08:18;;;;;;;;;;;11.60;99.90;;;;;;5062318;28;19916;-75
2024/01/24 02:10:44;;;;;;;;;;;11.70;99.90;;;;;;5051618;28;20360;-75
2024/01/24 02:13:11;;;;;;;;;;;11.70;99.90;;;;;;5051640;28;20038;-75
2024/01/24 02:15:37;;;;;;;;;;;11.70;99.90;;;;;;5096294;28;20290;-76
2024/01/24 02:18:04;;;;;;;;;;;11.80;99.90;;;;;;5071217;28;19909;-76
2024/01/24 02:20:31;;;;;;;;;;;11.80;99.90;;;;;;5071642;28;20434;-74
2024/01/24 02:22:57;;;;;;;;;;;11.90;99.90;;;;;;5075937;28;19908;-74
2024/01/24 02:25:23;;;;;;;;;;;11.90;99.90;;;;;;5072404;28;20011;-75
2024/01/24 02:27:50;;;;;;;;;;;11.90;99.90;;;;;;5071678;28;19923;-76
2024/01/24 02:30:15;;;;;;;;;;;12.00;99.90;;;;;;5071472;28;20365;-76
2024/01/24 02:32:41;;;;;;;;;;;12.00;99.90;;;;;;5071470;28;19951;-76
2024/01/24 02:35:07;;;;;;;;;;;12.00;99.90;;;;;;5071530;28;20305;-76
2024/01/24 02:37:33;;;;;;;;;;;12.00;99.90;;;;;;5071478;28;20418;-74
2024/01/24 02:40:01;;;;;;;;;;;12.00;99.90;;;;;;5070924;28;19912;-76
2024/01/24 02:42:26;;;;;;;;;;;12.00;99.90;;;;;;5103657;28;20011;-76
2024/01/24 02:44:52;;;;;;;;;;;12.00;99.90;;;;;;5071348;28;19990;-76
2024/01/24 02:47:21;;;;;;;;;;;12.00;99.90;;;;;;5071162;28;20347;-76
2024/01/24 02:49:48;;;;;;;;;;;12.00;99.90;;;;;;5071056;28;19921;-74
2024/01/24 02:52:14;;;;;;;;;;;11.90;99.90;;;;;;5071359;28;19915;-75
2024/01/24 02:54:41;;;;;;;;;;;12.00;99.90;;;;;;5071090;28;19913;-74
2024/01/24 02:57:09;;;;;;;;;;;11.90;99.90;;;;;;5071155;28;19912;-76
2024/01/24 02:59:35;;;;;;;;;;;11.80;99.90;;;;;;5071205;28;20014;-76
2024/01/24 03:02:04;;;;;;;;;;;11.70;99.90;;;;;;5070710;28;19908;-75
2024/01/24 03:04:29;;;;;;;;;;;11.70;99.90;;;;;;5071210;28;19909;-76
2024/01/24 03:06:55;;;;;;;;;;;11.70;99.90;;;;;;5070851;28;19908;-76
2024/01/24 03:09:22;;;;;;;;;;;11.70;99.90;;;;;;5069148;28;19925;-75
2024/01/24 03:11:47;;;;;;;;;;;11.60;99.90;;;;;;5070877;28;19983;-76
2024/01/24 03:14:14;;;;;;;;;;;11.60;99.90;;;;;;5070724;28;20377;-76
2024/01/24 03:16:40;;;;;;;;;;;11.60;99.90;;;;;;5070352;28;19932;-76
2024/01/24 03:19:07;;;;;;;;;;;11.60;99.90;;;;;;5070512;28;20279;-76
2024/01/24 03:21:33;;;;;;;;;;;11.60;99.90;;;;;;5070396;28;19915;-76
2024/01/24 03:23:59;;;;;;;;;;;11.60;99.90;;;;;;5069347;28;19909;-76
2024/01/24 03:26:24;;;;;;;;;;;11.60;99.90;;;;;;5070621;28;19962;-76
2024/01/24 03:28:51;;;;;;;;;;;11.70;99.90;;;;;;5070379;28;19990;-76
2024/01/24 03:31:17;;;;;;;;;;;11.80;99.90;;;;;;5070667;28;19917;-76
2024/01/24 03:33:43;;;;;;;;;;;11.80;99.90;;;;;;5070410;28;19996;-76
2024/01/24 03:36:08;;;;;;;;;;;11.80;99.90;;;;;;5070551;28;19909;-76
2024/01/24 03:38:34;;;;;;;;;;;11.80;99.90;;;;;;5070616;28;19913;-76
2024/01/24 03:41:00;;;;;;;;;;;11.80;99.90;;;;;;5070630;28;19909;-76
2024/01/24 03:43:26;;;;;;;;;;;11.80;99.90;;;;;;5068901;28;19915;-76
2024/01/24 03:45:52;;;;;;;;;;;11.80;99.90;;;;;;5070339;28;20299;-76
2024/01/24 03:48:18;;;;;;;;;;;11.80;99.90;;;;;;5070732;28;19971;-76
2024/01/24 03:50:44;;;;;;;;;;;11.90;99.90;;;;;;5070469;28;19928;-76
2024/01/24 03:53:10;;;;;;;;;;;11.90;99.90;;;;;;5074007;28;20026;-76
2024/01/24 03:55:36;;;;;;;;;;;11.90;99.90;;;;;;5074127;28;20106;-76
2024/01/24 03:58:02;;;;;;;;;;;11.90;99.90;;;;;;5074357;28;19913;-76
2024/01/24 04:00:28;;;;;;;;;;;11.80;99.90;;;;;;5074345;28;19991;-76
2024/01/24 04:02:55;;;;;;;;;;;11.80;99.90;;;;;;5074290;28;20420;-76
2024/01/24 04:05:21;;;;;;;;;;;11.80;99.90;;;;;;5074107;28;20292;-76
2024/01/24 04:07:46;;;;;;;;;;;11.80;99.90;;;;;;5074145;28;19924;-72
2024/01/24 04:10:12;;;;;;;;;;;11.80;99.90;;;;;;5073935;28;19920;-75
2024/01/24 04:12:38;;;;;;;;;;;11.80;99.90;;;;;;5073945;28;19908;-76
2024/01/24 04:15:05;;;;;;;;;;;11.80;99.90;;;;;;5070393;28;19923;-76
2024/01/24 04:17:31;;;;;;;;;;;11.80;99.90;;;;;;5066436;28;20456;-75
2024/01/24 04:19:57;;;;;;;;;;;11.70;99.90;;;;;;5071007;28;19912;-74
2024/01/24 04:22:23;;;;;;;;;;;11.70;99.90;;;;;;5063264;28;19974;-73
2024/01/24 04:24:49;;;;;;;;;;;11.70;99.90;;;;;;5089899;28;19917;-76
2024/01/24 04:27:15;;;;;;;;;;;11.70;99.90;;;;;;5053831;28;19952;-76
2024/01/24 04:29:43;;;;;;;;;;;11.70;99.90;;;;;;5053490;28;19923;-76
2024/01/24 04:32:09;;;;;;;;;;;11.70;99.90;;;;;;5053413;28;19973;-76
2024/01/24 04:34:35;;;;;;;;;;;11.70;99.90;;;;;;5054275;28;20389;-76
2024/01/24 04:37:01;;;;;;;;;;;11.70;99.90;;;;;;5054224;28;20000;-76
2024/01/24 04:39:27;;;;;;;;;;;11.60;99.90;;;;;;5054072;28;20265;-77
2024/01/24 04:41:53;;;;;;;;;;;11.60;99.90;;;;;;5053973;28;19908;-76
2024/01/24 04:44:20;;;;;;;;;;;11.60;99.90;;;;;;5055804;28;19909;-76
2024/01/24 04:46:47;;;;;;;;;;;11.60;99.90;;;;;;5073847;28;19932;-75
2024/01/24 04:49:12;;;;;;;;;;;11.60;99.90;;;;;;5073992;28;19924;-76
2024/01/24 04:51:38;;;;;;;;;;;11.60;99.90;;;;;;5073942;28;19916;-76
2024/01/24 04:54:04;;;;;;;;;;;11.50;99.90;;;;;;5074783;28;20010;-75
2024/01/24 04:56:30;;;;;;;;;;;11.60;99.90;;;;;;5074830;28;19956;-75
2024/01/24 04:58:56;;;;;;;;;;;11.60;99.90;;;;;;5074582;28;20317;-76
2024/01/24 05:01:22;;;;;;;;;;;11.60;99.90;;;;;;5074519;28;19912;-74
2024/01/24 05:03:48;;;;;;;;;;;11.60;99.90;;;;;;5074038;28;20346;-73
2024/01/24 05:06:13;;;;;;;;;;;11.60;99.90;;;;;;5074525;28;19934;-75
2024/01/24 05:08:40;;;;;;;;;;;11.60;99.90;;;;;;5074141;28;19938;-75
2024/01/24 05:11:09;;;;;;;;;;;11.60;99.90;;;;;;5074345;28;19912;-75
2024/01/24 05:13:36;;;;;;;;;;;11.60;99.90;;;;;;5074376;28;19920;-75
2024/01/24 05:16:02;;;;;;;;;;;11.60;99.90;;;;;;5079600;28;19920;-75
2024/01/24 05:18:30;;;;;;;;;;;11.50;99.90;;;;;;5076277;28;20369;-76
2024/01/24 05:20:55;;;;;;;;;;;11.50;99.90;;;;;;5074248;28;19916;-75
2024/01/24 05:23:22;;;;;;;;;;;11.60;99.90;;;;;;5075193;28;19909;-75
2024/01/24 05:25:49;;;;;;;;;;;11.60;99.90;;;;;;5075143;28;19909;-74
2024/01/24 05:28:15;;;;;;;;;;;11.60;99.90;;;;;;5074896;28;19985;-74
2024/01/24 05:30:40;;;;;;;;;;;11.60;99.90;;;;;;5060539;28;19921;-75
2024/01/24 05:33:06;;;;;;;;;;;11.70;99.90;;;;;;5054668;28;19908;-74
2024/01/24 05:35:32;;;;;;;;;;;11.70;99.90;;;;;;5054838;28;19912;-74
2024/01/24 05:37:58;;;;;;;;;;;11.70;99.90;;;;;;5058354;28;19909;-70
2024/01/24 05:40:27;;;;;;;;;;;11.70;99.90;;;;;;5074640;28;19917;-74
2024/01/24 05:42:53;;;;;;;;;;;11.70;99.90;;;;;;5063479;28;19972;-75
2024/01/24 05:45:18;;;;;;;;;;;11.60;99.90;;;;;;5064573;28;19908;-75
2024/01/24 05:47:45;;;;;;;;;;;11.50;99.90;;;;;;5073186;28;19908;-75
2024/01/24 05:50:12;;;;;;;;;;;11.60;99.90;;;;;;5074438;28;19962;-75
2024/01/24 05:52:44;;;;;;;;;;;11.60;99.90;;;;;;5074458;28;19909;-75
2024/01/24 05:55:13;;;;;;;;;;;11.50;99.90;;;;;;5058915;28;20007;-74
2024/01/24 05:57:39;;;;;;;;;;;11.60;99.90;;;;;;5053295;28;19916;-75
2024/01/24 06:00:08;;;;;;;;;;;11.60;99.90;;;;;;5053961;28;19916;-75
2024/01/24 06:02:35;;;;;;;;;;;11.60;99.90;;;;;;5053543;28;19909;-75
2024/01/24 06:05:01;;;;;;;;;;;11.50;99.90;;;;;;5053435;28;19915;-76
2024/01/24 06:07:28;;;;;;;;;;;11.60;99.90;;;;;;5053486;28;19936;-76
2024/01/24 06:09:54;;;;;;;;;;;11.60;99.90;;;;;;5053148;28;19928;-77
2024/01/24 06:12:20;;;;;;;;;;;11.60;99.90;;;;;;5071855;28;19913;-70
2024/01/24 06:14:46;;;;;;;;;;;11.60;99.90;;;;;;5071345;28;19908;-76
2024/01/24 06:17:12;;;;;;;;;;;11.70;99.90;;;;;;5073462;28;19913;-75
2024/01/24 06:19:38;;;;;;;;;;;11.60;99.90;;;;;;5073706;28;19935;-76
2024/01/24 06:22:04;;;;;;;;;;;11.70;99.90;;;;;;5073610;28;19951;-76
2024/01/24 06:24:31;;;;;;;;;;;11.80;99.90;;;;;;5073658;28;20254;-75
2024/01/24 06:26:57;;;;;;;;;;;11.80;99.90;;;;;;5073636;28;19938;-76
2024/01/24 06:29:24;;;;;;;;;;;11.80;99.90;;;;;;5072705;28;19917;-77
2024/01/24 06:31:50;;;;;;;;;;;11.80;99.90;;;;;;5071768;28;19908;-76
2024/01/24 06:34:16;;;;;;;;;;;12.00;99.90;;;;;;5072185;28;19908;-77
2024/01/24 06:36:41;;;;;;;;;;;12.30;99.90;;;;;;5072702;28;20058;-77
2024/01/24 06:39:07;;;;;;;;;;;12.70;99.90;;;;;;5073753;28;20027;-76
2024/01/24 06:41:33;;;;;;;;;;;13.20;99.90;;;;;;5073462;28;20356;-76
2024/01/24 06:43:59;;;;;;;;;;;13.70;99.90;;;;;;5073024;28;19908;-77
2024/01/24 06:46:28;;;;;;;;;;;14.30;99.90;;;;;;5072274;28;19934;-77
2024/01/24 06:48:54;;;;;;;;;;;14.80;99.90;;;;;;5071703;28;19908;-77
2024/01/24 06:51:20;;;;;;;;;;;15.10;99.90;;;;;;5071204;28;19919;-77
2024/01/24 06:53:45;;;;;;;;;;;15.40;99.90;;;;;;5071828;28;20007;-77
2024/01/24 06:56:11;;;;;;;;;;;15.70;99.90;;;;;;5071004;28;19909;-76
2024/01/24 06:58:37;;;;;;;;;;;15.80;99.90;;;;;;5070898;28;20280;-76
2024/01/24 07:01:03;;;;;;;;;;;16.10;99.90;;;;;;5069239;28;20054;-76
2024/01/24 07:03:29;;;;;;;;;;;16.30;99.90;;;;;;5069745;28;19966;-77
2024/01/24 07:05:55;;;;;;;;;;;16.20;99.90;;;;;;5071428;28;19934;-78
2024/01/24 07:08:21;;;;;;;;;;;16.70;99.90;;;;;;5070737;28;20305;-78
2024/01/24 07:10:47;;;;;;;;;;;17.10;99.90;;;;;;5071321;28;19917;-78
2024/01/24 07:13:13;;;;;;;;;;;17.40;99.90;;;;;;5071140;28;19951;-73
2024/01/24 07:15:39;;;;;;;;;;;17.50;99.90;;;;;;5071059;28;19959;-77
2024/01/24 07:18:05;;;;;;;;;;;17.50;99.90;;;;;;5071683;28;19912;-76
2024/01/24 07:20:31;;;;;;;;;;;17.70;99.90;;;;;;5071850;28;19958;-76
2024/01/24 07:22:57;;;;;;;;;;;18.10;99.90;;;;;;5072246;28;19995;-77
2024/01/24 07:25:23;;;;;;;;;;;18.60;99.90;;;;;;5070429;28;19934;-74
2024/01/24 07:27:49;;;;;;;;;;;19.10;99.90;;;;;;5057564;28;20365;-72
2024/01/24 07:30:15;;;;;;;;;;;19.00;99.90;;;;;;5056097;28;20012;-77
2024/01/24 07:32:42;;;;;;;;;;;19.20;99.90;;;;;;5056482;28;19934;-75
2024/01/24 07:35:11;;;;;;;;;;;19.50;99.90;;;;;;5054856;28;20015;-72
2024/01/24 07:37:37;;;;;;;;;;;19.50;99.90;;;;;;5053735;28;20361;-72
2024/01/24 07:40:03;;;;;;;;;;;19.20;99.90;;;;;;5053953;28;19909;-71
2024/01/24 07:42:29;;;;;;;;;;;19.40;99.90;;;;;;5055230;28;19909;-73
2024/01/24 07:44:56;;;;;;;;;;;19.50;99.90;;;;;;5061807;28;19969;-74
2024/01/24 07:47:22;;;;;;;;;;;19.30;99.90;;;;;;5075069;28;19957;-73
2024/01/24 07:49:48;;;;;;;;;;;20.10;99.90;;;;;;5075023;28;20315;-73
2024/01/24 07:52:13;;;;;;;;;;;20.30;99.90;;;;;;5075448;28;19919;-74
2024/01/24 07:54:40;;;;;;;;;;;20.50;99.90;;;;;;5074186;28;20352;-75
2024/01/24 07:57:06;;;;;;;;;;;20.20;99.90;;;;;;5054059;28;19992;-74
2024/01/24 07:59:32;;;;;;;;;;;20.30;99.90;;;;;;5054120;28;19993;-74
2024/01/24 08:01:58;;;;;;;;;;;20.10;99.90;;;;;;5053356;28;19909;-75
2024/01/24 08:04:30;;;;;;;;;;;19.40;99.90;;;;;;5054731;28;20564;-74
2024/01/24 08:06:59;;;;;;;;;;;18.90;99.90;;;;;;5054397;28;19908;-74
2024/01/24 08:09:24;;;;;;;;;;;18.60;99.90;;;;;;5054058;28;19982;-75
2024/01/24 08:11:50;;;;;;;;;;;18.20;99.90;;;;;;5060788;28;19963;-73
2024/01/24 08:14:18;;;;;;;;;;;17.70;99.90;;;;;;5057304;28;19946;-74
2024/01/24 08:17:17;;;;;;;;;;;17.10;99.90;;;;;;5106674;28;19920;-74
2024/01/24 08:19:43;;;;;;;;;;;16.70;99.90;;;;;;5092990;28;19919;-74
2024/01/24 08:22:09;;;;;;;;;;;16.70;99.90;;;;;;5075581;28;19935;-72
2024/01/24 08:24:35;;;;;;;;;;;16.80;99.90;;;;;;5092832;28;19976;-74
2024/01/24 08:27:00;;;;;;;;;;;16.60;99.90;;;;;;5092652;28;20307;-74
2024/01/24 08:29:26;;;;;;;;;;;16.40;99.90;;;;;;5092670;28;19916;-73
2024/01/24 08:31:52;;;;;;;;;;;16.40;99.90;;;;;;5092168;28;20288;-73
2024/01/24 08:34:18;;;;;;;;;;;16.40;99.90;;;;;;5092354;28;20251;-75
2024/01/24 08:36:45;;;;;;;;;;;16.20;99.90;;;;;;5092148;28;19912;-75
2024/01/24 08:39:11;;;;;;;;;;;16.10;99.90;;;;;;5093164;28;19908;-72
2024/01/24 08:41:37;;;;;;;;;;;16.10;99.90;;;;;;5091611;28;20003;-72
2024/01/24 08:44:04;;;;;;;;;;;16.20;99.90;;;;;;5093376;28;19952;-75
2024/01/24 08:46:30;;;;;;;;;;;16.30;99.90;;;;;;5092046;28;19932;-73
2024/01/24 08:48:56;;;;;;;;;;;16.00;99.90;;;;;;5090885;28;20001;-75
2024/01/24 08:51:24;;;;;;;;;;;16.00;99.90;;;;;;5090472;28;20026;-73
2024/01/24 08:53:50;;;;;;;;;;;16.10;99.90;;;;;;5091600;28;20053;-75
2024/01/24 08:56:16;;;;;;;;;;;16.20;99.90;;;;;;5057299;28;20003;-73
2024/01/24 08:58:42;;;;;;;;;;;16.30;99.90;;;;;;5053692;28;19909;-79
2024/01/24 09:01:08;;;;;;;;;;;16.40;99.90;;;;;;5053961;28;19909;-76
2024/01/24 09:03:34;;;;;;;;;;;16.30;99.90;;;;;;5053400;28;19977;-76
2024/01/24 09:05:59;;;;;;;;;;;16.30;99.90;;;;;;5051950;28;19973;-76
2024/01/24 09:08:25;;;;;;;;;;;16.10;99.90;;;;;;5052638;28;19956;-75
2024/01/24 09:11:11;;;;;;;;;;;16.20;99.90;;;;;;5052873;28;20277;-76
2024/01/24 09:13:37;;;;;;;;;;;16.10;99.90;;;;;;5054616;28;19931;-73
2024/01/24 09:16:03;;;;;;;;;;;15.90;99.90;;;;;;5069821;28;20344;-75
2024/01/24 09:18:29;;;;;;;;;;;16.00;99.90;;;;;;5073023;28;19908;-75
2024/01/24 09:20:54;;;;;;;;;;;16.00;99.90;;;;;;5073500;28;19919;-80
2024/01/24 09:23:21;;;;;;;;;;;16.10;99.90;;;;;;5073940;28;19915;-77
2024/01/24 09:25:47;;;;;;;;;;;16.30;99.90;;;;;;5074059;28;19916;-76
2024/01/24 09:28:13;;;;;;;;;;;16.20;99.90;;;;;;5073962;28;19999;-76
2024/01/24 09:30:39;;;;;;;;;;;16.30;99.90;;;;;;5074065;28;19952;-78
2024/01/24 09:33:06;;;;;;;;;;;16.50;99.90;;;;;;5072281;28;20391;-72
2024/01/24 09:35:35;;;;;;;;;;;16.60;99.90;;;;;;5073315;28;19946;-78
2024/01/24 09:38:01;;;;;;;;;;;16.60;99.90;;;;;;5072992;28;19908;-76
2024/01/24 09:40:26;;;;;;;;;;;16.40;99.90;;;;;;5073222;28;19908;-76
2024/01/24 09:42:52;;;;;;;;;;;16.30;99.90;;;;;;5073286;28;19920;-73
2024/01/24 09:45:22;;;;;;;;;;;16.20;99.90;;;;;;5072764;28;19909;-75
2024/01/24 09:47:49;;;;;;;;;;;16.40;99.90;;;;;;5072232;28;20061;-76
2024/01/24 09:50:15;;;;;;;;;;;16.40;99.90;;;;;;5069614;28;20426;-73
2024/01/24 09:52:41;;;;;;;;;;;16.40;99.90;;;;;;5072693;28;20003;-75
2024/01/24 09:55:07;;;;;;;;;;;16.30;99.90;;;;;;5072487;28;19939;-74
2024/01/24 09:57:33;;;;;;;;;;;16.20;99.90;;;;;;5072293;28;19943;-75
2024/01/24 09:59:59;;;;;;;;;;;16.10;99.90;;;;;;5071730;28;19983;-75
2024/01/24 10:02:28;;;;;;;;;;;16.00;99.90;;;;;;5072682;28;19914;-74
2024/01/24 10:04:54;;;;;;;;;;;16.10;99.90;;;;;;5072420;28;19974;-78
2024/01/24 10:07:21;;;;;;;;;;;16.30;99.90;;;;;;5071613;28;20319;-79
2024/01/24 10:09:47;;;;;;;;;;;16.50;99.90;;;;;;5071425;28;19956;-78
2024/01/24 10:12:13;;;;;;;;;;;16.80;99.90;;;;;;5073043;28;19952;-77
2024/01/24 10:14:40;;;;;;;;;;;17.00;99.90;;;;;;5072618;28;20333;-76
2024/01/24 10:17:08;;;;;;;;;;;17.00;99.90;;;;;;5071419;28;19984;-76
2024/01/24 10:19:33;;;;;;;;;;;17.10;99.90;;;;;;5105088;28;19955;-77
2024/01/24 10:21:59;;;;;;;;;;;17.50;99.90;;;;;;5073179;28;19909;-76
2024/01/24 10:24:25;;;;;;;;;;;17.30;99.90;;;;;;5072802;28;19909;-77
2024/01/24 10:26:51;;;;;;;;;;;17.10;99.90;;;;;;5072384;28;19909;-78
2024/01/24 10:29:17;;;;;;;;;;;16.90;99.90;;;;;;5072595;28;19942;-78
2024/01/24 10:31:43;;;;;;;;;;;16.80;99.90;;;;;;5071419;28;19912;-77
2024/01/24 10:34:09;;;;;;;;;;;16.80;99.90;;;;;;5072306;28;19988;-77
2024/01/24 10:36:38;;;;;;;;;;;16.90;99.90;;;;;;5075969;28;19909;-77
2024/01/24 10:39:07;;;;;;;;;;;16.90;99.90;;;;;;5078656;28;20431;-77
2024/01/24 10:41:39;;;;;;;;;;;16.70;99.90;;;;;;5073328;28;19967;-81
2024/01/24 10:44:09;;;;;;;;;;;16.80;99.90;;;;;;5070813;28;20357;-80
2024/01/24 10:46:39;;;;;;;;;;;16.70;99.90;;;;;;5070707;28;19928;-81
2024/01/24 10:49:05;;;;;;;;;;;16.60;99.90;;;;;;5072391;28;19962;-81
2024/01/24 10:51:34;;;;;;;;;;;16.70;99.90;;;;;;5071942;28;19982;-77
2024/01/24 10:54:02;;;;;;;;;;;16.90;99.90;;;;;;5072841;28;19908;-80
2024/01/24 10:56:29;;;;;;;;;;;16.80;99.90;;;;;;5072893;28;20272;-82
2024/01/24 10:58:55;;;;;;;;;;;16.90;99.90;;;;;;5072584;28;19915;-76
2024/01/24 11:01:21;;;;;;;;;;;17.10;99.90;;;;;;5071856;28;20056;-78
2024/01/24 11:03:51;;;;;;;;;;;17.10;99.90;;;;;;5072126;28;19913;-79
2024/01/24 11:06:18;;;;;;;;;;;17.10;99.90;;;;;;5073189;28;19908;-79
2024/01/24 11:08:48;;;;;;;;;;;17.10;99.90;;;;;;5072365;28;19968;-75
2024/01/24 11:11:18;;;;;;;;;;;17.10;99.90;;;;;;5070984;28;20249;-79
2024/01/24 11:13:45;;;;;;;;;;;17.10;99.90;;;;;;5071858;28;20038;-78
2024/01/24 11:16:39;;;;;;;;;;;17.10;99.90;;;;;;5070997;28;19917;-78
2024/01/24 11:19:19;;;;;;;;;;;16.90;99.90;;;;;;5072261;28;19908;-77
2024/01/24 11:21:45;;;;;;;;;;;16.70;99.90;;;;;;5071844;28;19977;-78
2024/01/24 11:24:11;;;;;;;;;;;16.70;99.90;;;;;;5072298;28;20356;-77
2024/01/24 11:26:37;;;;;;;;;;;16.70;99.90;;;;;;5071130;28;19912;-77
2024/01/24 11:29:06;;;;;;;;;;;16.70;99.90;;;;;;5070591;28;19966;-78
2024/01/24 11:31:39;;;;;;;;;;;16.90;99.90;;;;;;5070736;28;20264;-79
2024/01/24 11:34:09;;;;;;;;;;;16.90;99.90;;;;;;5072294;28;20230;-77
2024/01/24 11:36:53;;;;;;;;;;;17.10;99.90;;;;;;5070745;28;19908;-77
2024/01/24 11:39:39;;;;;;;;;;;17.30;99.90;;;;;;5071404;28;19908;-78
2024/01/24 11:42:23;;;;;;;;;;;17.30;99.90;;;;;;5070786;28;20404;-78
2024/01/24 11:44:49;;;;;;;;;;;17.20;99.90;;;;;;5072060;28;19908;-78
2024/01/24 11:47:15;;;;;;;;;;;17.10;99.90;;;;;;5070569;28;19935;-73
2024/01/24 11:49:47;;;;;;;;;;;17.10;99.90;;;;;;5071418;28;20372;-76
2024/01/24 11:52:13;;;;;;;;;;;17.20;99.90;;;;;;5071590;28;20323;-75
2024/01/24 11:54:49;;;;;;;;;;;17.30;99.90;;;;;;5071523;28;19909;-76
2024/01/24 11:57:15;;;;;;;;;;;17.20;99.90;;;;;;5071334;28;19908;-77
2024/01/24 11:59:41;;;;;;;;;;;17.20;99.90;;;;;;5070590;28;20327;-75
2024/01/24 12:02:07;;;;;;;;;;;17.30;99.90;;;;;;5058242;28;19920;-76
2024/01/24 12:04:32;;;;;;;;;;;17.50;99.90;;;;;;5051254;28;19983;-77
2024/01/24 12:06:59;;;;;;;;;;;17.50;99.90;;;;;;5051249;28;19909;-77
2024/01/24 12:09:25;;;;;;;;;;;17.60;99.90;;;;;;5049018;28;20265;-77
2024/01/24 12:11:51;;;;;;;;;;;17.70;99.90;;;;;;5051133;28;19932;-77
2024/01/24 12:14:18;;;;;;;;;;;17.70;99.90;;;;;;5055821;28;19909;-76
2024/01/24 12:16:43;;;;;;;;;;;17.70;99.90;;;;;;5074506;28;19920;-76
2024/01/24 12:19:09;;;;;;;;;;;17.50;99.90;;;;;;5075612;28;19912;-75
2024/01/24 12:21:35;;;;;;;;;;;17.50;99.90;;;;;;5076042;28;19958;-71
2024/01/24 12:24:01;;;;;;;;;;;17.50;99.90;;;;;;5075080;28;19909;-76
2024/01/24 12:26:29;;;;;;;;;;;17.70;99.90;;;;;;5074978;28;19909;-77
2024/01/24 12:28:55;;;;;;;;;;;18.00;99.90;;;;;;5075209;28;19935;-77
2024/01/24 12:31:20;;;;;;;;;;;18.30;99.90;;;;;;5074893;28;19928;-77
2024/01/24 12:33:46;;;;;;;;;;;18.50;99.90;;;;;;5073252;28;19927;-76
2024/01/24 12:36:12;;;;;;;;;;;18.80;99.90;;;;;;5074883;28;20269;-78
2024/01/24 12:38:38;;;;;;;;;;;18.60;99.90;;;;;;5074948;28;20008;-77
2024/01/24 12:41:05;;;;;;;;;;;18.40;99.90;;;;;;5074714;28;19913;-75
2024/01/24 12:43:32;;;;;;;;;;;18.20;99.90;;;;;;5074882;28;20006;-76
2024/01/24 12:46:03;;;;;;;;;;;17.70;99.90;;;;;;5073395;28;19999;-76
2024/01/24 12:48:29;;;;;;;;;;;17.50;99.90;;;;;;5074427;28;19908;-77
2024/01/24 12:50:55;;;;;;;;;;;17.50;99.90;;;;;;5073073;28;19917;-76
2024/01/24 12:53:21;;;;;;;;;;;17.40;99.90;;;;;;5073026;28;19916;-76
2024/01/24 12:55:47;;;;;;;;;;;17.50;99.90;;;;;;5054827;28;20354;-77
2024/01/24 12:58:13;;;;;;;;;;;17.60;99.90;;;;;;5070839;28;19965;-76
2024/01/24 13:00:39;;;;;;;;;;;17.90;99.90;;;;;;5074269;28;19909;-77
2024/01/24 13:03:05;;;;;;;;;;;18.10;99.90;;;;;;5074332;28;20246;-77
2024/01/24 13:05:30;;;;;;;;;;;17.90;99.90;;;;;;5074848;28;19909;-75
2024/01/24 13:07:56;;;;;;;;;;;18.00;99.90;;;;;;5073781;28;20372;-77
2024/01/24 13:10:22;;;;;;;;;;;17.90;99.90;;;;;;5074839;28;19921;-77
2024/01/24 13:12:48;;;;;;;;;;;18.00;99.90;;;;;;5075152;28;20357;-76
2024/01/24 13:15:44;;;;;;;;;;;18.00;99.90;;;;;;5073440;28;19999;-69
2024/01/24 13:18:18;;;;;;;;;;;18.10;99.90;;;;;;5073525;28;20041;-71
2024/01/24 13:20:44;;;;;;;;;;;18.10;99.90;;;;;;5074659;28;19954;-67
2024/01/24 13:23:10;;;;;;;;;;;18.20;99.90;;;;;;5074662;28;20005;-72
2024/01/24 13:25:36;;;;;;;;;;;18.30;99.90;;;;;;5074872;28;19956;-72
2024/01/24 13:28:02;;;;;;;;;;;18.30;99.90;;;;;;5073442;28;19915;-71
2024/01/24 13:30:28;;;;;;;;;;;18.50;99.90;;;;;;5074718;28;19916;-72
2024/01/24 13:32:54;;;;;;;;;;;18.30;99.90;;;;;;5074477;28;20275;-71
2024/01/24 13:35:21;;;;;;;;;;;17.80;99.90;;;;;;5074557;28;20375;-72
2024/01/24 13:37:47;;;;;;;;;;;17.50;99.90;;;;;;5074552;28;19908;-71
2024/01/24 13:40:13;;;;;;;;;;;17.10;99.90;;;;;;5074421;28;19908;-72
2024/01/24 13:42:39;;;;;;;;;;;17.00;99.90;;;;;;5074411;28;19948;-73
2024/01/24 13:45:05;;;;;;;;;;;17.00;99.90;;;;;;5073028;28;20400;-71
2024/01/24 13:47:31;;;;;;;;;;;17.20;99.90;;;;;;5074182;28;19908;-75
2024/01/24 13:49:57;;;;;;;;;;;17.20;99.90;;;;;;5073378;28;20015;-74
2024/01/24 13:52:23;;;;;;;;;;;17.30;99.90;;;;;;5073612;28;19909;-74
2024/01/24 13:54:51;;;;;;;;;;;17.50;99.90;;;;;;5073207;28;19915;-72
2024/01/24 13:57:17;;;;;;;;;;;17.50;99.90;;;;;;5072965;28;20007;-74
2024/01/24 13:59:43;;;;;;;;;;;17.40;99.90;;;;;;5070152;28;20017;-72
2024/01/24 14:02:09;;;;;;;;;;;17.30;99.90;;;;;;5072701;28;20424;-73
2024/01/24 14:04:36;;;;;;;;;;;17.40;99.90;;;;;;5072670;28;20372;-74
2024/01/24 14:07:02;;;;;;;;;;;17.50;99.90;;;;;;5073169;28;19915;-74
2024/01/24 14:09:28;;;;;;;;;;;17.70;99.90;;;;;;5072697;28;19921;-75
2024/01/24 14:11:54;;;;;;;;;;;17.80;99.90;;;;;;5072974;28;19912;-75
2024/01/24 14:14:20;;;;;;;;;;;17.80;99.90;;;;;;5072962;28;19909;-76